Wickett, Texas
Current Conditions -  °F | °C
As of 4:53 AM on Wednesday 26 Nov 2014 (Local Time) from KINK Reporting Station
Clear Clear  
Wind Chill: 34°   Ceiling: Unl
Heat Index: 34°   Visibility: 10mi
Dew Point: 14°   Wind: 0mph
Humidity: 44%   Direction: NA
Pressure: 30.16"   Gusts: NA
Location:  31.57°N, 103°W
Report Text: KINK 261053Z AUTO 00000KT 10SM CLR 01/M10 A3016 RMK AO2 SLP205 T00111100
Loading
Personal Weather Stations






























Interactive Weather Map New forecast layout! Learn more

10-Day Weather Forecast

Advertisements
Track Severe Weather on mobile